Colfax, WA (99111)

4:35 AM PST on December 05, 2016 (GMT -0800)
south palouse river rd. | | Change Station

Elev 2182 ft 46.86 °N, 117.33 °W | Updated 11 minutes ago

Clear
Clear
25.2 °F
Feels Like 16 °F
N
9.4
Wind Variable Wind from SSW

Today
High -- | Low -- °F
--% Chance of Precip.
Yesterday
High -- | Low -- °F
Precip. -- in
Pressure 30.13 in
Visibility 10.0 miles
Clouds Clear
Windchill 16 °F
Dew Point 22 °F
Humidity 88%
Rainfall 0.00 in
Snow Depth Not available.
7:19 AM 4:01 PM
Waxing Crescent, 31% visible
METAR KPUW 051153Z AUTO 26007KT 10SM CLR M04/M07 A3005 RMK AO2 SLP203 70029 T10391067 11028 21039 50010
Pressure 30.13 in
Visibility 10.0 miles
Clouds Clear
Windchill 16 °F
Dew Point 22 °F
Humidity 88%
Rainfall 0.00 in
Snow Depth Not available.
7:19 AM 4:01 PM
Waxing Crescent, 31% visible
METAR KPUW 051153Z AUTO 26007KT 10SM CLR M04/M07 A3005 RMK AO2 SLP203 70029 T10391067 11028 21039 50010

10-Day Weather Forecast

Almanac

Astronomy

Dec. 05, 2016 Rise Set
Actual Time
Civil Twilight
Nautical Twilight
Astronomical Twilight
Moon
Length of Visible Light
Length of Day
Tomorrow will be .
, % of the Moon is Illuminated

Today's Extremes

State Highs State Lows

Community

WunderPhotos

Upload Photos

1,955,777 photos uploaded!

WunderBlog® & News

Nearby

Air Quality

  Air Quality AQ Index Pollutant
Not available.

Snow Depth

Station Depth Elevation

Earthquake Activity

City Distance Mag. Time & Date
Minimum magnitude displayed is 2.5.

Coastal Water Temperatures

Place Temperature

Stations

Nearby Weather Stations

Station Location Temp. Windchill Dew Point Humidity Wind Precip. Elev Updated Type
                   

Watches & Warnings

There are currently no watches in effect.